Joliette, North Dakota
Current Conditions -  °F | °C
As of 7:35 PM on Friday 31 Oct 2014 (Local Time) from K2C8 Reporting Station
Clear Clear  
Wind Chill: 27°   Ceiling: Unl
Heat Index: 36°   Visibility: 10mi
Dew Point: 19°   Wind: 14mph
Humidity: 52%   Direction: 160°SSE
Pressure: 30.33"   Gusts: 17mph
Location:  48.8466°N, 97.3026°W
Report Text: K2C8 010035Z AUTO 16012G15KT 10SM CLR 02/M07 A3033 RMK AO2
Loading
Personal Weather Stations






























Interactive Weather Map
Tropical Storm Tracking
New forecast layout! Learn more

10-Day Weather Forecast

Advertisements
Track Severe Weather on mobile